sensor_id;sensor_type;location;lat;lon;timestamp;P1;durP1;ratioP1;P2;durP2;ratioP2
76202;SDS011;64985;46.364;17.008;2023-03-24T00:01:11;19.65;;;13.50;;
76202;SDS011;64985;46.364;17.008;2023-03-24T00:04:15;19.38;;;13.15;;
76202;SDS011;64985;46.364;17.008;2023-03-24T00:07:18;20.45;;;13.75;;
76202;SDS011;64985;46.364;17.008;2023-03-24T00:10:26;22.27;;;14.15;;
76202;SDS011;64985;46.364;17.008;2023-03-24T00:13:36;21.50;;;12.88;;
76202;SDS011;64985;46.364;17.008;2023-03-24T00:16:40;23.10;;;13.70;;
76202;SDS011;64985;46.364;17.008;2023-03-24T00:19:44;23.08;;;14.60;;
76202;SDS011;64985;46.364;17.008;2023-03-24T00:22:48;23.02;;;14.90;;
76202;SDS011;64985;46.364;17.008;2023-03-24T00:26:11;24.92;;;16.95;;
76202;SDS011;64985;46.364;17.008;2023-03-24T00:29:16;24.02;;;16.27;;
76202;SDS011;64985;46.364;17.008;2023-03-24T00:32:20;20.95;;;14.10;;
76202;SDS011;64985;46.364;17.008;2023-03-24T00:35:24;21.70;;;14.35;;
76202;SDS011;64985;46.364;17.008;2023-03-24T00:38:27;23.55;;;15.02;;
76202;SDS011;64985;46.364;17.008;2023-03-24T00:41:30;21.67;;;15.18;;
76202;SDS011;64985;46.364;17.008;2023-03-24T00:44:34;27.17;;;15.82;;
76202;SDS011;64985;46.364;17.008;2023-03-24T00:47:38;20.95;;;14.50;;
76202;SDS011;64985;46.364;17.008;2023-03-24T00:50:45;26.27;;;17.23;;
76202;SDS011;64985;46.364;17.008;2023-03-24T00:53:49;29.92;;;19.35;;
76202;SDS011;64985;46.364;17.008;2023-03-24T00:56:59;24.50;;;16.42;;
76202;SDS011;64985;46.364;17.008;2023-03-24T01:00:05;25.17;;;15.98;;
76202;SDS011;64985;46.364;17.008;2023-03-24T01:03:15;25.48;;;17.15;;
76202;SDS011;64985;46.364;17.008;2023-03-24T01:06:23;27.23;;;17.88;;
76202;SDS011;64985;46.364;17.008;2023-03-24T01:09:26;25.02;;;16.08;;
76202;SDS011;64985;46.364;17.008;2023-03-24T01:12:31;28.55;;;17.83;;
76202;SDS011;64985;46.364;17.008;2023-03-24T01:15:36;28.75;;;19.25;;
76202;SDS011;64985;46.364;17.008;2023-03-24T01:18:39;31.75;;;19.75;;
76202;SDS011;64985;46.364;17.008;2023-03-24T01:21:44;28.45;;;16.50;;
76202;SDS011;64985;46.364;17.008;2023-03-24T01:24:47;45.83;;;26.23;;
76202;SDS011;64985;46.364;17.008;2023-03-24T01:27:51;36.55;;;23.23;;
76202;SDS011;64985;46.364;17.008;2023-03-24T01:30:55;26.48;;;17.88;;
76202;SDS011;64985;46.364;17.008;2023-03-24T01:33:58;24.92;;;15.68;;
76202;SDS011;64985;46.364;17.008;2023-03-24T01:37:01;23.05;;;14.02;;
76202;SDS011;64985;46.364;17.008;2023-03-24T01:40:05;19.80;;;13.98;;
76202;SDS011;64985;46.364;17.008;2023-03-24T01:43:16;21.90;;;13.77;;
76202;SDS011;64985;46.364;17.008;2023-03-24T01:46:20;25.65;;;14.73;;
76202;SDS011;64985;46.364;17.008;2023-03-24T01:49:26;25.48;;;14.43;;
76202;SDS011;64985;46.364;17.008;2023-03-24T01:52:36;25.38;;;15.48;;
76202;SDS011;64985;46.364;17.008;2023-03-24T01:55:40;24.08;;;15.10;;
76202;SDS011;64985;46.364;17.008;2023-03-24T01:58:46;26.88;;;15.48;;
76202;SDS011;64985;46.364;17.008;2023-03-24T02:01:54;24.50;;;15.55;;
76202;SDS011;64985;46.364;17.008;2023-03-24T02:05:05;26.40;;;16.20;;
76202;SDS011;64985;46.364;17.008;2023-03-24T02:08:24;23.15;;;15.38;;
76202;SDS011;64985;46.364;17.008;2023-03-24T02:11:35;27.08;;;15.77;;
76202;SDS011;64985;46.364;17.008;2023-03-24T02:14:39;26.88;;;16.15;;
76202;SDS011;64985;46.364;17.008;2023-03-24T02:34:33;25.23;;;15.60;;
76202;SDS011;64985;46.364;17.008;2023-03-24T02:37:53;24.17;;;15.60;;
76202;SDS011;64985;46.364;17.008;2023-03-24T02:41:18;27.33;;;15.75;;
76202;SDS011;64985;46.364;17.008;2023-03-24T02:54:33;26.33;;;16.20;;
76202;SDS011;64985;46.364;17.008;2023-03-24T02:57:55;26.67;;;16.45;;
76202;SDS011;64985;46.364;17.008;2023-03-24T03:01:09;26.02;;;16.13;;
76202;SDS011;64985;46.364;17.008;2023-03-24T03:04:21;24.45;;;16.33;;
76202;SDS011;64985;46.364;17.008;2023-03-24T03:07:38;27.25;;;16.30;;
76202;SDS011;64985;46.364;17.008;2023-03-24T03:10:46;24.98;;;15.10;;
76202;SDS011;64985;46.364;17.008;2023-03-24T03:13:55;23.17;;;14.93;;
76202;SDS011;64985;46.364;17.008;2023-03-24T03:17:09;23.20;;;14.88;;
76202;SDS011;64985;46.364;17.008;2023-03-24T03:20:20;26.85;;;14.95;;
76202;SDS011;64985;46.364;17.008;2023-03-24T03:23:28;23.42;;;14.50;;
76202;SDS011;64985;46.364;17.008;2023-03-24T03:26:37;23.25;;;14.63;;
76202;SDS011;64985;46.364;17.008;2023-03-24T03:29:47;22.77;;;14.30;;
76202;SDS011;64985;46.364;17.008;2023-03-24T03:32:57;23.27;;;14.48;;
76202;SDS011;64985;46.364;17.008;2023-03-24T03:36:23;26.17;;;14.82;;
76202;SDS011;64985;46.364;17.008;2023-03-24T03:40:05;23.05;;;15.10;;
76202;SDS011;64985;46.364;17.008;2023-03-24T03:43:07;23.27;;;14.77;;
76202;SDS011;64985;46.364;17.008;2023-03-24T03:46:10;25.05;;;15.50;;
76202;SDS011;64985;46.364;17.008;2023-03-24T03:49:14;24.85;;;15.10;;
76202;SDS011;64985;46.364;17.008;2023-03-24T03:52:18;24.50;;;12.38;;
76202;SDS011;64985;46.364;17.008;2023-03-24T03:55:22;17.52;;;12.10;;
76202;SDS011;64985;46.364;17.008;2023-03-24T03:58:25;18.40;;;11.25;;
76202;SDS011;64985;46.364;17.008;2023-03-24T04:01:31;17.30;;;10.70;;
76202;SDS011;64985;46.364;17.008;2023-03-24T04:08:12;18.23;;;10.48;;
76202;SDS011;64985;46.364;17.008;2023-03-24T04:11:49;16.83;;;11.40;;
76202;SDS011;64985;46.364;17.008;2023-03-24T04:18:40;17.90;;;10.73;;
76202;SDS011;64985;46.364;17.008;2023-03-24T04:25:28;19.52;;;11.10;;
76202;SDS011;64985;46.364;17.008;2023-03-24T04:28:58;16.75;;;11.05;;
76202;SDS011;64985;46.364;17.008;2023-03-24T04:32:14;17.05;;;11.43;;
76202;SDS011;64985;46.364;17.008;2023-03-24T04:35:49;18.50;;;11.05;;
76202;SDS011;64985;46.364;17.008;2023-03-24T04:38:56;14.13;;;9.48;;
76202;SDS011;64985;46.364;17.008;2023-03-24T04:42:04;13.15;;;8.27;;
76202;SDS011;64985;46.364;17.008;2023-03-24T04:45:11;13.48;;;9.15;;
76202;SDS011;64985;46.364;17.008;2023-03-24T04:48:17;15.23;;;8.93;;
76202;SDS011;64985;46.364;17.008;2023-03-24T04:51:21;12.88;;;8.60;;
76202;SDS011;64985;46.364;17.008;2023-03-24T04:54:25;14.75;;;8.63;;
76202;SDS011;64985;46.364;17.008;2023-03-24T04:57:29;12.65;;;8.52;;
76202;SDS011;64985;46.364;17.008;2023-03-24T05:00:32;12.13;;;8.05;;
76202;SDS011;64985;46.364;17.008;2023-03-24T05:03:38;14.15;;;8.13;;
76202;SDS011;64985;46.364;17.008;2023-03-24T05:06:41;11.15;;;6.90;;
76202;SDS011;64985;46.364;17.008;2023-03-24T05:09:44;15.23;;;8.00;;
76202;SDS011;64985;46.364;17.008;2023-03-24T05:12:48;13.73;;;8.23;;
76202;SDS011;64985;46.364;17.008;2023-03-24T05:15:52;10.90;;;7.65;;
76202;SDS011;64985;46.364;17.008;2023-03-24T05:18:55;13.95;;;8.20;;
76202;SDS011;64985;46.364;17.008;2023-03-24T05:21:58;10.60;;;7.47;;
76202;SDS011;64985;46.364;17.008;2023-03-24T05:25:03;11.35;;;7.85;;
76202;SDS011;64985;46.364;17.008;2023-03-24T05:28:07;12.52;;;7.93;;
76202;SDS011;64985;46.364;17.008;2023-03-24T05:31:10;10.77;;;7.30;;
76202;SDS011;64985;46.364;17.008;2023-03-24T05:34:13;13.20;;;7.60;;
76202;SDS011;64985;46.364;17.008;2023-03-24T05:37:17;10.93;;;6.80;;
76202;SDS011;64985;46.364;17.008;2023-03-24T05:40:20;8.70;;;6.80;;
76202;SDS011;64985;46.364;17.008;2023-03-24T05:43:23;10.68;;;6.85;;
76202;SDS011;64985;46.364;17.008;2023-03-24T05:46:26;10.73;;;6.80;;
76202;SDS011;64985;46.364;17.008;2023-03-24T05:49:30;11.27;;;7.00;;
76202;SDS011;64985;46.364;17.008;2023-03-24T05:52:33;11.20;;;6.85;;
76202;SDS011;64985;46.364;17.008;2023-03-24T05:55:37;10.43;;;6.60;;
76202;SDS011;64985;46.364;17.008;2023-03-24T05:58:41;10.52;;;7.07;;
76202;SDS011;64985;46.364;17.008;2023-03-24T06:01:46;11.40;;;6.63;;
76202;SDS011;64985;46.364;17.008;2023-03-24T06:04:51;9.25;;;6.50;;
76202;SDS011;64985;46.364;17.008;2023-03-24T06:07:54;9.63;;;6.90;;
76202;SDS011;64985;46.364;17.008;2023-03-24T06:11:01;10.13;;;6.60;;
76202;SDS011;64985;46.364;17.008;2023-03-24T06:14:04;10.85;;;6.68;;
76202;SDS011;64985;46.364;17.008;2023-03-24T06:17:10;8.65;;;6.55;;
76202;SDS011;64985;46.364;17.008;2023-03-24T06:20:16;9.57;;;6.80;;
76202;SDS011;64985;46.364;17.008;2023-03-24T06:23:19;11.20;;;6.28;;
76202;SDS011;64985;46.364;17.008;2023-03-24T06:26:25;11.10;;;6.28;;
76202;SDS011;64985;46.364;17.008;2023-03-24T06:29:28;10.43;;;6.90;;
76202;SDS011;64985;46.364;17.008;2023-03-24T06:32:32;13.65;;;7.13;;
76202;SDS011;64985;46.364;17.008;2023-03-24T06:35:35;11.40;;;6.47;;
76202;SDS011;64985;46.364;17.008;2023-03-24T06:38:39;12.38;;;6.30;;
76202;SDS011;64985;46.364;17.008;2023-03-24T06:41:43;11.45;;;6.70;;
76202;SDS011;64985;46.364;17.008;2023-03-24T06:44:46;12.23;;;6.88;;
76202;SDS011;64985;46.364;17.008;2023-03-24T06:47:51;10.65;;;6.95;;
76202;SDS011;64985;46.364;17.008;2023-03-24T06:50:58;14.70;;;6.70;;
76202;SDS011;64985;46.364;17.008;2023-03-24T06:54:01;11.65;;;6.57;;
76202;SDS011;64985;46.364;17.008;2023-03-24T06:57:05;11.77;;;6.53;;
76202;SDS011;64985;46.364;17.008;2023-03-24T07:00:09;11.27;;;6.57;;
76202;SDS011;64985;46.364;17.008;2023-03-24T07:03:16;10.05;;;6.63;;
76202;SDS011;64985;46.364;17.008;2023-03-24T07:06:19;14.73;;;7.15;;
76202;SDS011;64985;46.364;17.008;2023-03-24T07:09:24;12.45;;;6.97;;
76202;SDS011;64985;46.364;17.008;2023-03-24T07:12:27;12.80;;;6.70;;
76202;SDS011;64985;46.364;17.008;2023-03-24T07:15:31;14.57;;;7.22;;
76202;SDS011;64985;46.364;17.008;2023-03-24T07:18:34;13.02;;;7.35;;
76202;SDS011;64985;46.364;17.008;2023-03-24T07:21:37;14.52;;;7.10;;
76202;SDS011;64985;46.364;17.008;2023-03-24T07:24:41;13.13;;;7.43;;
76202;SDS011;64985;46.364;17.008;2023-03-24T07:27:44;13.85;;;7.43;;
76202;SDS011;64985;46.364;17.008;2023-03-24T07:30:49;16.60;;;7.72;;
76202;SDS011;64985;46.364;17.008;2023-03-24T07:33:56;12.27;;;7.10;;
76202;SDS011;64985;46.364;17.008;2023-03-24T07:37:02;14.10;;;7.10;;
76202;SDS011;64985;46.364;17.008;2023-03-24T07:40:05;13.48;;;6.97;;
76202;SDS011;64985;46.364;17.008;2023-03-24T07:43:13;9.57;;;6.07;;
76202;SDS011;64985;46.364;17.008;2023-03-24T07:46:16;13.20;;;7.00;;
76202;SDS011;64985;46.364;17.008;2023-03-24T07:49:19;12.43;;;6.25;;
76202;SDS011;64985;46.364;17.008;2023-03-24T07:52:23;11.18;;;4.97;;
76202;SDS011;64985;46.364;17.008;2023-03-24T07:55:26;12.98;;;5.25;;
76202;SDS011;64985;46.364;17.008;2023-03-24T07:58:29;9.55;;;5.10;;
76202;SDS011;64985;46.364;17.008;2023-03-24T08:01:32;9.57;;;5.43;;
76202;SDS011;64985;46.364;17.008;2023-03-24T08:04:38;10.15;;;5.50;;
76202;SDS011;64985;46.364;17.008;2023-03-24T08:07:41;8.30;;;5.45;;
76202;SDS011;64985;46.364;17.008;2023-03-24T08:10:47;12.77;;;5.38;;
76202;SDS011;64985;46.364;17.008;2023-03-24T08:13:51;7.65;;;5.20;;
76202;SDS011;64985;46.364;17.008;2023-03-24T08:16:54;7.90;;;5.22;;
76202;SDS011;64985;46.364;17.008;2023-03-24T08:19:58;11.10;;;5.40;;
76202;SDS011;64985;46.364;17.008;2023-03-24T08:23:04;8.63;;;6.10;;
76202;SDS011;64985;46.364;17.008;2023-03-24T08:26:08;8.45;;;4.97;;
76202;SDS011;64985;46.364;17.008;2023-03-24T08:29:13;7.28;;;4.47;;
76202;SDS011;64985;46.364;17.008;2023-03-24T08:32:16;6.80;;;4.78;;
76202;SDS011;64985;46.364;17.008;2023-03-24T08:35:24;6.97;;;4.93;;
76202;SDS011;64985;46.364;17.008;2023-03-24T08:38:35;7.35;;;4.20;;
76202;SDS011;64985;46.364;17.008;2023-03-24T08:41:40;6.68;;;4.53;;
76202;SDS011;64985;46.364;17.008;2023-03-24T08:44:43;7.10;;;4.60;;
76202;SDS011;64985;46.364;17.008;2023-03-24T08:47:47;5.78;;;4.05;;
76202;SDS011;64985;46.364;17.008;2023-03-24T08:50:51;6.78;;;3.60;;
76202;SDS011;64985;46.364;17.008;2023-03-24T08:53:55;6.90;;;3.67;;
76202;SDS011;64985;46.364;17.008;2023-03-24T08:56:58;7.53;;;4.00;;
76202;SDS011;64985;46.364;17.008;2023-03-24T09:00:01;4.50;;;3.58;;
76202;SDS011;64985;46.364;17.008;2023-03-24T09:03:13;6.13;;;3.70;;
76202;SDS011;64985;46.364;17.008;2023-03-24T09:06:19;4.47;;;2.92;;
76202;SDS011;64985;46.364;17.008;2023-03-24T09:09:23;5.20;;;3.20;;
76202;SDS011;64985;46.364;17.008;2023-03-24T09:12:28;8.23;;;3.50;;
76202;SDS011;64985;46.364;17.008;2023-03-24T09:15:31;3.90;;;3.20;;
76202;SDS011;64985;46.364;17.008;2023-03-24T09:18:35;4.93;;;3.25;;
76202;SDS011;64985;46.364;17.008;2023-03-24T09:21:38;4.22;;;3.10;;
76202;SDS011;64985;46.364;17.008;2023-03-24T09:24:43;6.38;;;3.15;;
76202;SDS011;64985;46.364;17.008;2023-03-24T09:27:47;6.10;;;3.42;;
76202;SDS011;64985;46.364;17.008;2023-03-24T09:30:50;15.00;;;3.38;;
76202;SDS011;64985;46.364;17.008;2023-03-24T09:33:58;5.32;;;3.08;;
76202;SDS011;64985;46.364;17.008;2023-03-24T09:37:05;7.13;;;3.47;;
76202;SDS011;64985;46.364;17.008;2023-03-24T09:40:16;8.43;;;3.22;;
76202;SDS011;64985;46.364;17.008;2023-03-24T09:46:35;6.10;;;3.22;;
76202;SDS011;64985;46.364;17.008;2023-03-24T09:49:42;5.72;;;3.17;;
76202;SDS011;64985;46.364;17.008;2023-03-24T09:52:47;5.13;;;3.38;;
76202;SDS011;64985;46.364;17.008;2023-03-24T09:55:54;5.05;;;3.33;;
76202;SDS011;64985;46.364;17.008;2023-03-24T10:02:29;5.40;;;3.08;;
76202;SDS011;64985;46.364;17.008;2023-03-24T10:05:34;4.25;;;3.13;;
76202;SDS011;64985;46.364;17.008;2023-03-24T10:08:43;4.32;;;3.13;;
76202;SDS011;64985;46.364;17.008;2023-03-24T10:11:57;5.60;;;3.00;;
76202;SDS011;64985;46.364;17.008;2023-03-24T10:15:25;4.32;;;3.45;;
76202;SDS011;64985;46.364;17.008;2023-03-24T10:18:45;8.63;;;4.18;;
76202;SDS011;64985;46.364;17.008;2023-03-24T10:32:16;7.70;;;3.17;;
76202;SDS011;64985;46.364;17.008;2023-03-24T10:35:24;10.17;;;3.30;;
76202;SDS011;64985;46.364;17.008;2023-03-24T10:38:37;5.75;;;2.95;;
76202;SDS011;64985;46.364;17.008;2023-03-24T10:41:40;4.90;;;3.20;;
76202;SDS011;64985;46.364;17.008;2023-03-24T10:44:45;9.35;;;3.20;;
76202;SDS011;64985;46.364;17.008;2023-03-24T10:47:52;5.60;;;3.35;;
76202;SDS011;64985;46.364;17.008;2023-03-24T10:50:58;6.00;;;3.28;;
76202;SDS011;64985;46.364;17.008;2023-03-24T10:54:11;7.00;;;2.85;;
76202;SDS011;64985;46.364;17.008;2023-03-24T10:57:19;6.63;;;3.42;;
76202;SDS011;64985;46.364;17.008;2023-03-24T11:00:25;4.70;;;3.03;;
76202;SDS011;64985;46.364;17.008;2023-03-24T11:03:34;7.03;;;3.25;;
76202;SDS011;64985;46.364;17.008;2023-03-24T11:06:41;8.88;;;2.95;;
76202;SDS011;64985;46.364;17.008;2023-03-24T11:09:57;6.47;;;2.70;;
76202;SDS011;64985;46.364;17.008;2023-03-24T11:13:25;3.38;;;2.50;;
76202;SDS011;64985;46.364;17.008;2023-03-24T11:16:37;3.47;;;2.70;;
76202;SDS011;64985;46.364;17.008;2023-03-24T11:19:54;4.07;;;2.92;;
76202;SDS011;64985;46.364;17.008;2023-03-24T11:23:00;5.38;;;2.88;;
76202;SDS011;64985;46.364;17.008;2023-03-24T11:29:17;6.10;;;2.65;;
76202;SDS011;64985;46.364;17.008;2023-03-24T11:32:23;4.60;;;2.53;;
76202;SDS011;64985;46.364;17.008;2023-03-24T11:35:29;5.03;;;2.42;;
76202;SDS011;64985;46.364;17.008;2023-03-24T11:38:43;3.53;;;2.58;;
76202;SDS011;64985;46.364;17.008;2023-03-24T11:42:13;5.65;;;3.00;;
76202;SDS011;64985;46.364;17.008;2023-03-24T11:45:25;4.03;;;2.65;;
76202;SDS011;64985;46.364;17.008;2023-03-24T11:48:43;3.90;;;2.85;;
76202;SDS011;64985;46.364;17.008;2023-03-24T11:51:52;5.78;;;3.00;;
76202;SDS011;64985;46.364;17.008;2023-03-24T11:54:56;3.67;;;2.97;;
76202;SDS011;64985;46.364;17.008;2023-03-24T12:11:13;13.05;;;3.15;;
76202;SDS011;64985;46.364;17.008;2023-03-24T12:14:31;5.32;;;3.00;;
76202;SDS011;64985;46.364;17.008;2023-03-24T12:18:03;5.85;;;2.90;;
76202;SDS011;64985;46.364;17.008;2023-03-24T12:21:18;7.00;;;3.03;;
76202;SDS011;64985;46.364;17.008;2023-03-24T12:41:06;4.68;;;2.80;;
76202;SDS011;64985;46.364;17.008;2023-03-24T12:44:33;5.07;;;2.72;;
76202;SDS011;64985;46.364;17.008;2023-03-24T12:52:18;5.28;;;2.70;;
76202;SDS011;64985;46.364;17.008;2023-03-24T12:55:16;4.25;;;2.67;;
76202;SDS011;64985;46.364;17.008;2023-03-24T13:01:45;3.03;;;2.60;;
76202;SDS011;64985;46.364;17.008;2023-03-24T13:04:55;5.57;;;2.80;;
76202;SDS011;64985;46.364;17.008;2023-03-24T13:08:14;5.45;;;2.70;;
76202;SDS011;64985;46.364;17.008;2023-03-24T13:11:36;3.33;;;2.63;;
76202;SDS011;64985;46.364;17.008;2023-03-24T13:21:15;3.58;;;2.78;;
76202;SDS011;64985;46.364;17.008;2023-03-24T13:24:19;5.28;;;2.90;;
76202;SDS011;64985;46.364;17.008;2023-03-24T13:27:24;4.80;;;2.95;;
76202;SDS011;64985;46.364;17.008;2023-03-24T13:30:36;3.58;;;3.00;;
76202;SDS011;64985;46.364;17.008;2023-03-24T13:33:42;3.83;;;2.60;;
76202;SDS011;64985;46.364;17.008;2023-03-24T13:36:51;7.63;;;2.65;;
76202;SDS011;64985;46.364;17.008;2023-03-24T13:40:09;5.18;;;2.55;;
76202;SDS011;64985;46.364;17.008;2023-03-24T13:43:21;7.30;;;2.75;;
76202;SDS011;64985;46.364;17.008;2023-03-24T13:46:27;4.78;;;2.55;;
76202;SDS011;64985;46.364;17.008;2023-03-24T13:49:30;4.97;;;2.75;;
76202;SDS011;64985;46.364;17.008;2023-03-24T13:52:38;9.13;;;3.10;;
76202;SDS011;64985;46.364;17.008;2023-03-24T13:55:50;4.72;;;2.83;;
76202;SDS011;64985;46.364;17.008;2023-03-24T14:02:20;15.23;;;2.65;;
76202;SDS011;64985;46.364;17.008;2023-03-24T14:05:39;9.50;;;2.53;;
76202;SDS011;64985;46.364;17.008;2023-03-24T14:09:02;6.32;;;2.53;;
76202;SDS011;64985;46.364;17.008;2023-03-24T14:12:07;4.40;;;2.70;;
76202;SDS011;64985;46.364;17.008;2023-03-24T14:16:00;8.20;;;2.60;;
76202;SDS011;64985;46.364;17.008;2023-03-24T14:18:47;23.55;;;2.88;;
76202;SDS011;64985;46.364;17.008;2023-03-24T14:28:21;5.18;;;2.65;;
76202;SDS011;64985;46.364;17.008;2023-03-24T14:31:33;5.40;;;3.10;;
76202;SDS011;64985;46.364;17.008;2023-03-24T14:34:37;6.07;;;2.60;;
76202;SDS011;64985;46.364;17.008;2023-03-24T14:38:02;3.70;;;2.80;;
76202;SDS011;64985;46.364;17.008;2023-03-24T14:41:29;6.68;;;2.40;;
76202;SDS011;64985;46.364;17.008;2023-03-24T14:47:50;4.65;;;2.38;;
76202;SDS011;64985;46.364;17.008;2023-03-24T14:51:11;5.80;;;2.40;;
76202;SDS011;64985;46.364;17.008;2023-03-24T14:57:52;5.05;;;2.53;;
76202;SDS011;64985;46.364;17.008;2023-03-24T15:01:00;4.80;;;2.30;;
76202;SDS011;64985;46.364;17.008;2023-03-24T15:04:09;6.07;;;2.75;;
76202;SDS011;64985;46.364;17.008;2023-03-24T15:07:12;3.95;;;2.20;;
76202;SDS011;64985;46.364;17.008;2023-03-24T15:10:18;4.32;;;2.70;;
76202;SDS011;64985;46.364;17.008;2023-03-24T15:16:35;7.93;;;3.00;;
76202;SDS011;64985;46.364;17.008;2023-03-24T15:19:39;9.30;;;2.47;;
76202;SDS011;64985;46.364;17.008;2023-03-24T15:22:43;4.30;;;2.63;;
76202;SDS011;64985;46.364;17.008;2023-03-24T15:25:46;6.30;;;3.03;;
76202;SDS011;64985;46.364;17.008;2023-03-24T15:28:56;7.13;;;3.10;;
76202;SDS011;64985;46.364;17.008;2023-03-24T15:32:19;4.53;;;2.95;;
76202;SDS011;64985;46.364;17.008;2023-03-24T15:35:24;5.13;;;2.70;;
76202;SDS011;64985;46.364;17.008;2023-03-24T15:38:28;4.40;;;2.70;;
76202;SDS011;64985;46.364;17.008;2023-03-24T15:41:33;5.22;;;3.03;;
76202;SDS011;64985;46.364;17.008;2023-03-24T15:44:37;5.50;;;3.00;;
76202;SDS011;64985;46.364;17.008;2023-03-24T15:47:42;9.02;;;3.22;;
76202;SDS011;64985;46.364;17.008;2023-03-24T15:50:56;5.75;;;3.13;;
76202;SDS011;64985;46.364;17.008;2023-03-24T15:54:03;5.75;;;3.03;;
76202;SDS011;64985;46.364;17.008;2023-03-24T15:57:21;5.93;;;4.00;;
76202;SDS011;64985;46.364;17.008;2023-03-24T16:00:28;6.38;;;4.47;;
76202;SDS011;64985;46.364;17.008;2023-03-24T16:03:40;6.38;;;3.85;;
76202;SDS011;64985;46.364;17.008;2023-03-24T16:06:49;5.63;;;3.50;;
76202;SDS011;64985;46.364;17.008;2023-03-24T16:09:56;4.53;;;3.70;;
76202;SDS011;64985;46.364;17.008;2023-03-24T16:13:13;6.00;;;3.42;;
76202;SDS011;64985;46.364;17.008;2023-03-24T16:16:27;6.47;;;3.50;;
76202;SDS011;64985;46.364;17.008;2023-03-24T16:19:31;9.00;;;3.38;;
76202;SDS011;64985;46.364;17.008;2023-03-24T16:22:35;5.40;;;3.45;;
76202;SDS011;64985;46.364;17.008;2023-03-24T16:25:38;6.63;;;3.63;;
76202;SDS011;64985;46.364;17.008;2023-03-24T16:28:42;6.72;;;3.55;;
76202;SDS011;64985;46.364;17.008;2023-03-24T16:31:48;7.55;;;3.47;;
76202;SDS011;64985;46.364;17.008;2023-03-24T16:34:53;7.50;;;3.63;;
76202;SDS011;64985;46.364;17.008;2023-03-24T16:37:55;6.32;;;3.58;;
76202;SDS011;64985;46.364;17.008;2023-03-24T16:40:59;5.50;;;3.97;;
76202;SDS011;64985;46.364;17.008;2023-03-24T16:44:02;5.38;;;3.92;;
76202;SDS011;64985;46.364;17.008;2023-03-24T16:47:05;6.93;;;4.20;;
76202;SDS011;64985;46.364;17.008;2023-03-24T16:50:21;4.55;;;3.58;;
76202;SDS011;64985;46.364;17.008;2023-03-24T16:53:57;6.82;;;3.95;;
76202;SDS011;64985;46.364;17.008;2023-03-24T16:57:00;5.68;;;4.03;;
76202;SDS011;64985;46.364;17.008;2023-03-24T17:00:03;5.85;;;4.10;;
76202;SDS011;64985;46.364;17.008;2023-03-24T17:03:12;11.07;;;4.37;;
76202;SDS011;64985;46.364;17.008;2023-03-24T17:06:15;9.15;;;4.28;;
76202;SDS011;64985;46.364;17.008;2023-03-24T17:09:19;8.05;;;4.25;;
76202;SDS011;64985;46.364;17.008;2023-03-24T17:12:23;7.82;;;4.72;;
76202;SDS011;64985;46.364;17.008;2023-03-24T17:15:27;8.07;;;4.30;;
76202;SDS011;64985;46.364;17.008;2023-03-24T17:18:32;5.85;;;4.07;;
76202;SDS011;64985;46.364;17.008;2023-03-24T17:21:41;6.75;;;4.60;;
76202;SDS011;64985;46.364;17.008;2023-03-24T17:24:48;8.98;;;4.70;;
76202;SDS011;64985;46.364;17.008;2023-03-24T17:27:51;9.63;;;4.85;;
76202;SDS011;64985;46.364;17.008;2023-03-24T17:30:55;9.38;;;4.90;;
76202;SDS011;64985;46.364;17.008;2023-03-24T17:33:58;12.43;;;4.90;;
76202;SDS011;64985;46.364;17.008;2023-03-24T17:37:21;8.75;;;4.80;;
76202;SDS011;64985;46.364;17.008;2023-03-24T17:40:27;8.38;;;4.90;;
76202;SDS011;64985;46.364;17.008;2023-03-24T17:43:31;8.38;;;5.40;;
76202;SDS011;64985;46.364;17.008;2023-03-24T17:46:34;9.38;;;5.72;;
76202;SDS011;64985;46.364;17.008;2023-03-24T17:49:38;9.32;;;5.90;;
76202;SDS011;64985;46.364;17.008;2023-03-24T17:52:46;10.75;;;6.15;;
76202;SDS011;64985;46.364;17.008;2023-03-24T17:55:49;10.52;;;6.20;;
76202;SDS011;64985;46.364;17.008;2023-03-24T17:58:54;7.55;;;5.57;;
76202;SDS011;64985;46.364;17.008;2023-03-24T18:02:00;7.50;;;5.47;;
76202;SDS011;64985;46.364;17.008;2023-03-24T18:05:04;8.13;;;5.80;;
76202;SDS011;64985;46.364;17.008;2023-03-24T18:08:09;9.57;;;5.47;;
76202;SDS011;64985;46.364;17.008;2023-03-24T18:11:14;8.73;;;6.10;;
76202;SDS011;64985;46.364;17.008;2023-03-24T18:14:17;10.93;;;6.03;;
76202;SDS011;64985;46.364;17.008;2023-03-24T18:17:20;10.15;;;6.80;;
76202;SDS011;64985;46.364;17.008;2023-03-24T18:20:26;13.63;;;7.63;;
76202;SDS011;64985;46.364;17.008;2023-03-24T18:23:31;10.23;;;7.63;;
76202;SDS011;64985;46.364;17.008;2023-03-24T18:26:36;12.13;;;7.55;;
76202;SDS011;64985;46.364;17.008;2023-03-24T18:29:40;14.43;;;8.60;;
76202;SDS011;64985;46.364;17.008;2023-03-24T18:32:45;12.32;;;7.80;;
76202;SDS011;64985;46.364;17.008;2023-03-24T18:35:52;12.10;;;7.85;;
76202;SDS011;64985;46.364;17.008;2023-03-24T18:38:59;10.35;;;7.93;;
76202;SDS011;64985;46.364;17.008;2023-03-24T18:42:09;12.27;;;7.72;;
76202;SDS011;64985;46.364;17.008;2023-03-24T18:45:13;9.90;;;7.28;;
76202;SDS011;64985;46.364;17.008;2023-03-24T18:48:20;11.32;;;7.25;;
76202;SDS011;64985;46.364;17.008;2023-03-24T18:51:25;9.50;;;7.68;;
76202;SDS011;64985;46.364;17.008;2023-03-24T18:54:31;9.00;;;6.78;;
76202;SDS011;64985;46.364;17.008;2023-03-24T18:57:35;8.75;;;6.68;;
76202;SDS011;64985;46.364;17.008;2023-03-24T19:00:49;12.43;;;7.10;;
76202;SDS011;64985;46.364;17.008;2023-03-24T19:03:56;8.77;;;6.53;;
76202;SDS011;64985;46.364;17.008;2023-03-24T19:07:00;9.57;;;6.88;;
76202;SDS011;64985;46.364;17.008;2023-03-24T19:10:10;10.70;;;7.32;;
76202;SDS011;64985;46.364;17.008;2023-03-24T19:13:15;10.38;;;6.93;;
76202;SDS011;64985;46.364;17.008;2023-03-24T19:16:19;12.45;;;6.43;;
76202;SDS011;64985;46.364;17.008;2023-03-24T19:19:23;10.35;;;7.60;;
76202;SDS011;64985;46.364;17.008;2023-03-24T19:22:30;11.25;;;8.02;;
76202;SDS011;64985;46.364;17.008;2023-03-24T19:25:33;11.48;;;8.68;;
76202;SDS011;64985;46.364;17.008;2023-03-24T19:28:38;10.05;;;7.50;;
76202;SDS011;64985;46.364;17.008;2023-03-24T19:31:43;10.70;;;8.13;;
76202;SDS011;64985;46.364;17.008;2023-03-24T19:34:47;10.13;;;7.85;;
76202;SDS011;64985;46.364;17.008;2023-03-24T19:37:52;10.23;;;7.40;;
76202;SDS011;64985;46.364;17.008;2023-03-24T19:40:55;10.27;;;7.18;;
76202;SDS011;64985;46.364;17.008;2023-03-24T19:44:00;11.82;;;7.13;;
76202;SDS011;64985;46.364;17.008;2023-03-24T19:47:11;10.77;;;7.90;;
76202;SDS011;64985;46.364;17.008;2023-03-24T19:50:15;10.13;;;7.43;;
76202;SDS011;64985;46.364;17.008;2023-03-24T19:53:21;75.43;;;44.35;;
76202;SDS011;64985;46.364;17.008;2023-03-24T19:56:25;34.92;;;23.55;;
76202;SDS011;64985;46.364;17.008;2023-03-24T19:59:30;31.67;;;21.75;;
76202;SDS011;64985;46.364;17.008;2023-03-24T20:02:37;22.65;;;14.45;;
76202;SDS011;64985;46.364;17.008;2023-03-24T20:05:42;12.40;;;9.82;;
76202;SDS011;64985;46.364;17.008;2023-03-24T20:08:46;23.45;;;17.65;;
76202;SDS011;64985;46.364;17.008;2023-03-24T20:11:50;21.55;;;13.50;;
76202;SDS011;64985;46.364;17.008;2023-03-24T20:14:56;10.65;;;8.40;;
76202;SDS011;64985;46.364;17.008;2023-03-24T20:18:03;10.82;;;8.00;;
76202;SDS011;64985;46.364;17.008;2023-03-24T20:21:09;11.48;;;8.30;;
76202;SDS011;64985;46.364;17.008;2023-03-24T20:24:19;12.13;;;7.47;;